sensor_id;sensor_type;location;lat;lon;timestamp;temperature;humidity
63325;SHT31;49451;52.390;13.028;2023-05-29T08:27:20;22.25;45.72
63325;SHT31;49451;52.390;13.028;2023-05-29T08:29:46;22.04;45.89
63325;SHT31;49451;52.390;13.028;2023-05-29T08:32:11;23.00;44.03
63325;SHT31;49451;52.390;13.028;2023-05-29T08:34:37;23.76;43.63
63325;SHT31;49451;52.390;13.028;2023-05-29T08:37:02;24.31;43.73
63325;SHT31;49451;52.390;13.028;2023-05-29T08:39:28;24.75;41.19
63325;SHT31;49451;52.390;13.028;2023-05-29T08:42:04;24.13;43.44
63325;SHT31;49451;52.390;13.028;2023-05-29T08:44:32;24.51;42.27
63325;SHT31;49451;52.390;13.028;2023-05-29T08:47:02;23.76;44.96
63325;SHT31;49451;52.390;13.028;2023-05-29T08:49:29;24.48;42.06
63325;SHT31;49451;52.390;13.028;2023-05-29T08:52:24;24.82;42.64
63325;SHT31;49451;52.390;13.028;2023-05-29T08:54:53;25.53;41.60
63325;SHT31;49451;52.390;13.028;2023-05-29T08:57:20;25.47;40.39
63325;SHT31;49451;52.390;13.028;2023-05-29T08:59:47;24.65;42.50
63325;SHT31;49451;52.390;13.028;2023-05-29T09:02:16;24.93;39.92
63325;SHT31;49451;52.390;13.028;2023-05-29T09:04:42;24.21;41.22
63325;SHT31;49451;52.390;13.028;2023-05-29T09:07:11;25.12;39.98
63325;SHT31;49451;52.390;13.028;2023-05-29T09:09:37;25.89;39.05
63325;SHT31;49451;52.390;13.028;2023-05-29T09:12:09;24.41;40.42
63325;SHT31;49451;52.390;13.028;2023-05-29T09:14:44;23.48;42.91
63325;SHT31;49451;52.390;13.028;2023-05-29T09:17:11;23.02;43.95
63325;SHT31;49451;52.390;13.028;2023-05-29T09:19:37;23.96;43.23
63325;SHT31;49451;52.390;13.028;2023-05-29T09:22:05;25.33;41.36
63325;SHT31;49451;52.390;13.028;2023-05-29T09:24:33;25.54;41.05
63325;SHT31;49451;52.390;13.028;2023-05-29T09:27:00;24.60;41.13
63325;SHT31;49451;52.390;13.028;2023-05-29T09:29:27;25.84;40.19
63325;SHT31;49451;52.390;13.028;2023-05-29T09:31:52;25.05;41.25
63325;SHT31;49451;52.390;13.028;2023-05-29T09:34:17;24.93;42.22
63325;SHT31;49451;52.390;13.028;2023-05-29T09:36:43;26.40;41.94
63325;SHT31;49451;52.390;13.028;2023-05-29T09:39:08;26.70;39.38
63325;SHT31;49451;52.390;13.028;2023-05-29T09:41:44;26.78;38.79
63325;SHT31;49451;52.390;13.028;2023-05-29T09:44:15;26.68;40.58
63325;SHT31;49451;52.390;13.028;2023-05-29T09:46:41;26.20;40.91
63325;SHT31;49451;52.390;13.028;2023-05-29T09:49:14;25.13;42.31
63325;SHT31;49451;52.390;13.028;2023-05-29T09:51:41;25.10;43.20
63325;SHT31;49451;52.390;13.028;2023-05-29T09:54:17;26.20;41.82
63325;SHT31;49451;52.390;13.028;2023-05-29T09:56:44;26.98;41.26
63325;SHT31;49451;52.390;13.028;2023-05-29T09:59:14;26.13;40.87
63325;SHT31;49451;52.390;13.028;2023-05-29T10:01:41;26.87;39.76
63325;SHT31;49451;52.390;13.028;2023-05-29T10:04:09;26.47;40.47
63325;SHT31;49451;52.390;13.028;2023-05-29T10:06:36;26.84;40.57
63325;SHT31;49451;52.390;13.028;2023-05-29T10:09:02;26.87;40.28
63325;SHT31;49451;52.390;13.028;2023-05-29T10:11:31;28.14;38.57
63325;SHT31;49451;52.390;13.028;2023-05-29T10:13:59;27.29;39.27
63325;SHT31;49451;52.390;13.028;2023-05-29T10:16:25;27.18;40.65
63325;SHT31;49451;52.390;13.028;2023-05-29T10:18:56;26.02;42.48
63325;SHT31;49451;52.390;13.028;2023-05-29T10:21:24;26.12;41.95
63325;SHT31;49451;52.390;13.028;2023-05-29T10:23:51;25.63;43.05
63325;SHT31;49451;52.390;13.028;2023-05-29T10:26:22;24.99;42.50
63325;SHT31;49451;52.390;13.028;2023-05-29T10:32:23;25.74;42.07
63325;SHT31;49451;52.390;13.028;2023-05-29T10:35:12;26.08;40.11
63325;SHT31;49451;52.390;13.028;2023-05-29T10:37:42;25.89;41.08
63325;SHT31;49451;52.390;13.028;2023-05-29T10:40:10;24.27;43.24
63325;SHT31;49451;52.390;13.028;2023-05-29T10:42:50;25.99;41.85
63325;SHT31;49451;52.390;13.028;2023-05-29T10:50:41;28.84;35.72
63325;SHT31;49451;52.390;13.028;2023-05-29T10:53:08;29.46;35.68
63325;SHT31;49451;52.390;13.028;2023-05-29T10:55:37;29.62;35.58
63325;SHT31;49451;52.390;13.028;2023-05-29T10:58:12;27.26;38.62
63325;SHT31;49451;52.390;13.028;2023-05-29T11:00:41;26.91;38.86
63325;SHT31;49451;52.390;13.028;2023-05-29T11:03:10;26.29;39.21
63325;SHT31;49451;52.390;13.028;2023-05-29T11:08:42;28.00;36.96
63325;SHT31;49451;52.390;13.028;2023-05-29T11:11:14;28.86;35.33
63325;SHT31;49451;52.390;13.028;2023-05-29T11:13:40;26.19;39.04
63325;SHT31;49451;52.390;13.028;2023-05-29T11:18:52;26.80;38.55
63325;SHT31;49451;52.390;13.028;2023-05-29T11:24:01;28.21;36.76
63325;SHT31;49451;52.390;13.028;2023-05-29T11:26:30;29.10;35.59
63325;SHT31;49451;52.390;13.028;2023-05-29T11:29:00;30.00;34.29
63325;SHT31;49451;52.390;13.028;2023-05-29T11:31:27;29.56;34.20
63325;SHT31;49451;52.390;13.028;2023-05-29T11:33:59;28.97;34.50
63325;SHT31;49451;52.390;13.028;2023-05-29T11:36:26;29.70;34.09
63325;SHT31;49451;52.390;13.028;2023-05-29T11:38:53;28.72;33.23
63325;SHT31;49451;52.390;13.028;2023-05-29T11:41:18;29.28;32.55
63325;SHT31;49451;52.390;13.028;2023-05-29T11:43:43;29.10;32.59
63325;SHT31;49451;52.390;13.028;2023-05-29T11:46:18;27.69;34.39
63325;SHT31;49451;52.390;13.028;2023-05-29T11:48:44;29.62;32.57
63325;SHT31;49451;52.390;13.028;2023-05-29T11:51:11;29.37;33.11
63325;SHT31;49451;52.390;13.028;2023-05-29T11:53:40;27.14;36.67
63325;SHT31;49451;52.390;13.028;2023-05-29T11:56:07;26.06;37.93
63325;SHT31;49451;52.390;13.028;2023-05-29T11:58:33;25.60;38.13
63325;SHT31;49451;52.390;13.028;2023-05-29T12:00:59;24.88;38.71
63325;SHT31;49451;52.390;13.028;2023-05-29T12:03:25;25.16;39.16
63325;SHT31;49451;52.390;13.028;2023-05-29T12:05:50;27.36;35.35
63325;SHT31;49451;52.390;13.028;2023-05-29T12:08:24;28.64;34.74
63325;SHT31;49451;52.390;13.028;2023-05-29T12:10:51;29.73;33.22
63325;SHT31;49451;52.390;13.028;2023-05-29T12:13:19;29.90;31.84
63325;SHT31;49451;52.390;13.028;2023-05-29T12:15:45;29.80;33.39
63325;SHT31;49451;52.390;13.028;2023-05-29T12:18:12;29.96;31.82
63325;SHT31;49451;52.390;13.028;2023-05-29T12:20:38;29.77;32.68
63325;SHT31;49451;52.390;13.028;2023-05-29T12:23:05;30.32;31.78
63325;SHT31;49451;52.390;13.028;2023-05-29T12:25:30;30.52;30.37
63325;SHT31;49451;52.390;13.028;2023-05-29T12:27:56;30.03;30.80
63325;SHT31;49451;52.390;13.028;2023-05-29T12:30:23;30.75;30.13
63325;SHT31;49451;52.390;13.028;2023-05-29T12:32:50;30.61;29.92
63325;SHT31;49451;52.390;13.028;2023-05-29T12:35:17;31.52;29.56
63325;SHT31;49451;52.390;13.028;2023-05-29T12:37:47;31.22;29.46
63325;SHT31;49451;52.390;13.028;2023-05-29T12:40:19;31.09;30.87
63325;SHT31;49451;52.390;13.028;2023-05-29T12:42:46;29.12;32.67
63325;SHT31;49451;52.390;13.028;2023-05-29T12:45:12;28.72;34.03
63325;SHT31;49451;52.390;13.028;2023-05-29T12:47:38;30.35;30.47
63325;SHT31;49451;52.390;13.028;2023-05-29T12:50:20;30.59;30.90
63325;SHT31;49451;52.390;13.028;2023-05-29T12:55:27;29.99;31.67
63325;SHT31;49451;52.390;13.028;2023-05-29T12:57:54;29.52;33.79
63325;SHT31;49451;52.390;13.028;2023-05-29T13:00:19;29.58;31.82
63325;SHT31;49451;52.390;13.028;2023-05-29T13:02:46;29.32;32.04
63325;SHT31;49451;52.390;13.028;2023-05-29T13:05:12;29.56;32.03
63325;SHT31;49451;52.390;13.028;2023-05-29T13:07:37;29.75;32.16
63325;SHT31;49451;52.390;13.028;2023-05-29T13:10:03;30.58;31.66
63325;SHT31;49451;52.390;13.028;2023-05-29T13:12:29;30.16;31.23
63325;SHT31;49451;52.390;13.028;2023-05-29T13:14:54;29.90;31.80
63325;SHT31;49451;52.390;13.028;2023-05-29T13:17:22;29.86;31.85
63325;SHT31;49451;52.390;13.028;2023-05-29T13:19:48;30.07;31.42
63325;SHT31;49451;52.390;13.028;2023-05-29T13:22:14;29.93;31.43
63325;SHT31;49451;52.390;13.028;2023-05-29T13:24:39;30.09;31.00
63325;SHT31;49451;52.390;13.028;2023-05-29T13:27:05;30.18;31.44
63325;SHT31;49451;52.390;13.028;2023-05-29T13:29:31;29.72;31.10
63325;SHT31;49451;52.390;13.028;2023-05-29T13:31:56;29.75;33.19
63325;SHT31;49451;52.390;13.028;2023-05-29T13:34:22;29.01;32.49
63325;SHT31;49451;52.390;13.028;2023-05-29T13:36:50;28.96;32.72
63325;SHT31;49451;52.390;13.028;2023-05-29T13:39:16;28.66;33.81
63325;SHT31;49451;52.390;13.028;2023-05-29T13:41:42;28.35;33.69
63325;SHT31;49451;52.390;13.028;2023-05-29T13:44:07;28.24;33.48
63325;SHT31;49451;52.390;13.028;2023-05-29T13:46:32;28.04;34.03
63325;SHT31;49451;52.390;13.028;2023-05-29T13:48:58;28.26;33.65
63325;SHT31;49451;52.390;13.028;2023-05-29T13:51:23;28.36;33.15
63325;SHT31;49451;52.390;13.028;2023-05-29T13:53:48;28.35;32.71
63325;SHT31;49451;52.390;13.028;2023-05-29T13:56:14;28.24;33.77
63325;SHT31;49451;52.390;13.028;2023-05-29T13:58:39;27.60;34.20
63325;SHT31;49451;52.390;13.028;2023-05-29T14:01:05;27.14;35.37
63325;SHT31;49451;52.390;13.028;2023-05-29T14:03:30;26.39;34.52
63325;SHT31;49451;52.390;13.028;2023-05-29T14:05:56;27.29;34.56
63325;SHT31;49451;52.390;13.028;2023-05-29T14:08:22;27.35;34.70
63325;SHT31;49451;52.390;13.028;2023-05-29T14:10:47;26.67;36.10
63325;SHT31;49451;52.390;13.028;2023-05-29T14:13:13;27.05;36.21
63325;SHT31;49451;52.390;13.028;2023-05-29T14:15:38;26.94;34.36
63325;SHT31;49451;52.390;13.028;2023-05-29T14:18:04;26.43;35.36
63325;SHT31;49451;52.390;13.028;2023-05-29T14:20:30;26.33;35.58
63325;SHT31;49451;52.390;13.028;2023-05-29T14:22:58;25.96;36.13
63325;SHT31;49451;52.390;13.028;2023-05-29T14:25:24;25.78;36.05
63325;SHT31;49451;52.390;13.028;2023-05-29T14:27:49;25.77;36.11
63325;SHT31;49451;52.390;13.028;2023-05-29T14:30:15;25.81;35.82
63325;SHT31;49451;52.390;13.028;2023-05-29T14:32:40;25.81;35.68
63325;SHT31;49451;52.390;13.028;2023-05-29T14:35:10;25.84;35.88
63325;SHT31;49451;52.390;13.028;2023-05-29T14:37:35;25.38;36.16
63325;SHT31;49451;52.390;13.028;2023-05-29T14:40:01;25.56;36.36
63325;SHT31;49451;52.390;13.028;2023-05-29T14:42:26;24.98;37.53
63325;SHT31;49451;52.390;13.028;2023-05-29T14:44:52;24.92;38.27
63325;SHT31;49451;52.390;13.028;2023-05-29T14:47:20;25.08;37.78
63325;SHT31;49451;52.390;13.028;2023-05-29T14:49:45;24.99;37.80
63325;SHT31;49451;52.390;13.028;2023-05-29T14:52:11;25.06;37.86
63325;SHT31;49451;52.390;13.028;2023-05-29T14:54:36;25.19;37.48
63325;SHT31;49451;52.390;13.028;2023-05-29T14:57:02;24.30;38.21
63325;SHT31;49451;52.390;13.028;2023-05-29T14:59:27;24.12;39.91
63325;SHT31;49451;52.390;13.028;2023-05-29T15:01:52;24.43;38.52
63325;SHT31;49451;52.390;13.028;2023-05-29T15:04:21;24.65;39.51
63325;SHT31;49451;52.390;13.028;2023-05-29T15:06:47;24.72;37.77
63325;SHT31;49451;52.390;13.028;2023-05-29T15:09:13;24.55;38.89
63325;SHT31;49451;52.390;13.028;2023-05-29T15:11:38;24.57;38.58
63325;SHT31;49451;52.390;13.028;2023-05-29T15:14:04;24.43;38.42
63325;SHT31;49451;52.390;13.028;2023-05-29T15:16:29;23.96;39.74
63325;SHT31;49451;52.390;13.028;2023-05-29T15:18:55;23.98;39.96
63325;SHT31;49451;52.390;13.028;2023-05-29T15:21:20;24.18;39.94
63325;SHT31;49451;52.390;13.028;2023-05-29T15:23:46;24.44;39.56
63325;SHT31;49451;52.390;13.028;2023-05-29T15:26:11;24.13;40.08
63325;SHT31;49451;52.390;13.028;2023-05-29T15:28:36;24.23;39.53
63325;SHT31;49451;52.390;13.028;2023-05-29T15:31:02;24.17;39.46
63325;SHT31;49451;52.390;13.028;2023-05-29T15:33:27;23.92;39.20
63325;SHT31;49451;52.390;13.028;2023-05-29T15:35:57;23.95;39.72
63325;SHT31;49451;52.390;13.028;2023-05-29T15:38:23;24.00;39.84
63325;SHT31;49451;52.390;13.028;2023-05-29T15:40:48;23.73;40.55
63325;SHT31;49451;52.390;13.028;2023-05-29T15:43:15;23.61;39.64
63325;SHT31;49451;52.390;13.028;2023-05-29T15:45:41;23.48;40.30
63325;SHT31;49451;52.390;13.028;2023-05-29T15:48:08;23.34;39.97
63325;SHT31;49451;52.390;13.028;2023-05-29T15:50:34;23.58;40.20
63325;SHT31;49451;52.390;13.028;2023-05-29T15:53:00;23.58;40.51
63325;SHT31;49451;52.390;13.028;2023-05-29T15:55:25;23.57;40.40
63325;SHT31;49451;52.390;13.028;2023-05-29T15:57:51;23.37;40.19
63325;SHT31;49451;52.390;13.028;2023-05-29T16:00:16;23.54;41.03
63325;SHT31;49451;52.390;13.028;2023-05-29T16:02:42;23.35;41.20
63325;SHT31;49451;52.390;13.028;2023-05-29T16:05:08;23.23;40.32
63325;SHT31;49451;52.390;13.028;2023-05-29T16:07:35;23.14;40.54
63325;SHT31;49451;52.390;13.028;2023-05-29T16:10:01;23.02;40.38
63325;SHT31;49451;52.390;13.028;2023-05-29T16:12:27;22.77;42.20
63325;SHT31;49451;52.390;13.028;2023-05-29T16:14:54;22.95;41.84
63325;SHT31;49451;52.390;13.028;2023-05-29T16:17:19;22.40;41.49
63325;SHT31;49451;52.390;13.028;2023-05-29T16:19:45;22.41;41.99
63325;SHT31;49451;52.390;13.028;2023-05-29T16:22:13;22.38;42.15
63325;SHT31;49451;52.390;13.028;2023-05-29T16:24:38;22.49;41.08
63325;SHT31;49451;52.390;13.028;2023-05-29T16:27:03;22.51;41.01
63325;SHT31;49451;52.390;13.028;2023-05-29T16:29:29;22.45;41.36
63325;SHT31;49451;52.390;13.028;2023-05-29T16:31:55;22.20;41.72
63325;SHT31;49451;52.390;13.028;2023-05-29T16:34:20;22.15;41.55
63325;SHT31;49451;52.390;13.028;2023-05-29T16:36:46;22.05;41.38
63325;SHT31;49451;52.390;13.028;2023-05-29T16:39:11;22.18;40.92
63325;SHT31;49451;52.390;13.028;2023-05-29T16:41:37;22.32;42.17
63325;SHT31;49451;52.390;13.028;2023-05-29T16:47:50;21.93;41.66
63325;SHT31;49451;52.390;13.028;2023-05-29T17:15:27;21.17;40.90
63325;SHT31;49451;52.390;13.028;2023-05-29T17:18:50;21.02;40.69
63325;SHT31;49451;52.390;13.028;2023-05-29T17:25:17;20.73;40.97
63325;SHT31;49451;52.390;13.028;2023-05-29T17:27:55;20.81;41.09
63325;SHT31;49451;52.390;13.028;2023-05-29T17:30:40;20.74;41.40
63325;SHT31;49451;52.390;13.028;2023-05-29T17:33:23;20.76;41.74
63325;SHT31;49451;52.390;13.028;2023-05-29T17:35:49;20.77;41.53
63325;SHT31;49451;52.390;13.028;2023-05-29T17:38:14;20.70;42.04
63325;SHT31;49451;52.390;13.028;2023-05-29T17:40:40;20.52;41.76
63325;SHT31;49451;52.390;13.028;2023-05-29T17:43:06;20.42;41.70
63325;SHT31;49451;52.390;13.028;2023-05-29T17:45:32;20.28;41.62
63325;SHT31;49451;52.390;13.028;2023-05-29T17:47:57;20.32;41.97
63325;SHT31;49451;52.390;13.028;2023-05-29T17:50:23;20.29;42.02
63325;SHT31;49451;52.390;13.028;2023-05-29T17:52:49;20.21;42.26
63325;SHT31;49451;52.390;13.028;2023-05-29T17:55:15;20.14;42.11
63325;SHT31;49451;52.390;13.028;2023-05-29T17:57:57;20.11;42.07
63325;SHT31;49451;52.390;13.028;2023-05-29T18:00:28;20.05;42.46
63325;SHT31;49451;52.390;13.028;2023-05-29T18:02:53;20.09;41.92
63325;SHT31;49451;52.390;13.028;2023-05-29T18:05:19;19.98;42.25
63325;SHT31;49451;52.390;13.028;2023-05-29T18:07:45;19.98;42.28
63325;SHT31;49451;52.390;13.028;2023-05-29T18:10:10;19.91;42.30
63325;SHT31;49451;52.390;13.028;2023-05-29T18:12:36;19.84;42.28
63325;SHT31;49451;52.390;13.028;2023-05-29T18:15:01;19.78;42.33
63325;SHT31;49451;52.390;13.028;2023-05-29T18:17:27;19.69;42.62
63325;SHT31;49451;52.390;13.028;2023-05-29T18:19:55;19.57;42.59
63325;SHT31;49451;52.390;13.028;2023-05-29T18:22:21;19.54;43.31
63325;SHT31;49451;52.390;13.028;2023-05-29T18:24:46;19.47;42.63
63325;SHT31;49451;52.390;13.028;2023-05-29T18:27:12;19.40;42.74
63325;SHT31;49451;52.390;13.028;2023-05-29T18:29:37;19.45;42.77
63325;SHT31;49451;52.390;13.028;2023-05-29T18:32:03;19.36;42.81
63325;SHT31;49451;52.390;13.028;2023-05-29T18:34:30;19.25;42.97
63325;SHT31;49451;52.390;13.028;2023-05-29T18:36:55;19.09;43.37
63325;SHT31;49451;52.390;13.028;2023-05-29T18:39:20;19.04;43.10
63325;SHT31;49451;52.390;13.028;2023-05-29T18:41:46;19.02;43.14
63325;SHT31;49451;52.390;13.028;2023-05-29T18:44:12;18.91;43.51
63325;SHT31;49451;52.390;13.028;2023-05-29T18:46:38;18.88;44.03
63325;SHT31;49451;52.390;13.028;2023-05-29T18:49:03;18.81;43.36
63325;SHT31;49451;52.390;13.028;2023-05-29T18:51:28;18.51;44.23
63325;SHT31;49451;52.390;13.028;2023-05-29T18:53:55;18.50;44.44
63325;SHT31;49451;52.390;13.028;2023-05-29T18:56:21;18.57;43.75
63325;SHT31;49451;52.390;13.028;2023-05-29T18:58:46;18.53;45.26
63325;SHT31;49451;52.390;13.028;2023-05-29T19:01:12;18.43;44.52
63325;SHT31;49451;52.390;13.028;2023-05-29T19:03:37;18.29;44.42
63325;SHT31;49451;52.390;13.028;2023-05-29T19:06:03;18.17;44.79
63325;SHT31;49451;52.390;13.028;2023-05-29T19:08:29;18.17;45.68
63325;SHT31;49451;52.390;13.028;2023-05-29T19:10:54;18.05;45.22
63325;SHT31;49451;52.390;13.028;2023-05-29T19:13:19;17.95;45.49
63325;SHT31;49451;52.390;13.028;2023-05-29T19:15:45;18.03;45.43
63325;SHT31;49451;52.390;13.028;2023-05-29T19:18:10;17.71;46.25
63325;SHT31;49451;52.390;13.028;2023-05-29T19:20:36;17.81;46.77
63325;SHT31;49451;52.390;13.028;2023-05-29T19:23:01;17.38;46.85
63325;SHT31;49451;52.390;13.028;2023-05-29T19:25:29;17.47;47.22
63325;SHT31;49451;52.390;13.028;2023-05-29T19:27:54;17.50;46.51
63325;SHT31;49451;52.390;13.028;2023-05-29T19:30:19;17.44;46.77
63325;SHT31;49451;52.390;13.028;2023-05-29T19:32:46;17.44;46.76
63325;SHT31;49451;52.390;13.028;2023-05-29T19:35:12;17.40;46.84
63325;SHT31;49451;52.390;13.028;2023-05-29T19:37:37;17.34;47.64
63325;SHT31;49451;52.390;13.028;2023-05-29T19:40:03;17.24;47.22
63325;SHT31;49451;52.390;13.028;2023-05-29T19:42:29;17.20;48.43
63325;SHT31;49451;52.390;13.028;2023-05-29T19:44:55;16.96;48.30
63325;SHT31;49451;52.390;13.028;2023-05-29T19:47:22;16.95;47.61
63325;SHT31;49451;52.390;13.028;2023-05-29T19:49:48;16.95;47.94
63325;SHT31;49451;52.390;13.028;2023-05-29T19:52:14;17.00;49.46
63325;SHT31;49451;52.390;13.028;2023-05-29T19:54:39;16.78;48.13
63325;SHT31;49451;52.390;13.028;2023-05-29T19:57:06;16.79;49.00
63325;SHT31;49451;52.390;13.028;2023-05-29T19:59:34;16.74;48.51
63325;SHT31;49451;52.390;13.028;2023-05-29T20:02:00;16.76;48.73
63325;SHT31;49451;52.390;13.028;2023-05-29T20:04:29;16.75;49.73
63325;SHT31;49451;52.390;13.028;2023-05-29T20:06:55;16.61;49.40
63325;SHT31;49451;52.390;13.028;2023-05-29T20:09:21;16.58;49.50
63325;SHT31;49451;52.390;13.028;2023-05-29T20:11:49;16.62;49.23
63325;SHT31;49451;52.390;13.028;2023-05-29T20:14:15;16.58;49.46
63325;SHT31;49451;52.390;13.028;2023-05-29T20:16:41;16.53;50.39
63325;SHT31;49451;52.390;13.028;2023-05-29T20:19:06;16.40;50.38
63325;SHT31;49451;52.390;13.028;2023-05-29T20:21:32;16.36;49.81
63325;SHT31;49451;52.390;13.028;2023-05-29T20:24:02;16.26;50.50
63325;SHT31;49451;52.390;13.028;2023-05-29T20:26:28;16.14;50.08
63325;SHT31;49451;52.390;13.028;2023-05-29T20:28:53;16.18;51.26
63325;SHT31;49451;52.390;13.028;2023-05-29T20:31:19;16.12;50.63
63325;SHT31;49451;52.390;13.028;2023-05-29T20:33:44;16.14;51.14
63325;SHT31;49451;52.390;13.028;2023-05-29T20:36:10;16.10;50.98
63325;SHT31;49451;52.390;13.028;2023-05-29T20:38:35;16.05;50.77
63325;SHT31;49451;52.390;13.028;2023-05-29T20:41:06;15.93;51.21
63325;SHT31;49451;52.390;13.028;2023-05-29T20:43:32;15.81;50.76
63325;SHT31;49451;52.390;13.028;2023-05-29T20:46:02;15.78;50.42
63325;SHT31;49451;52.390;13.028;2023-05-29T20:48:29;15.82;51.18
63325;SHT31;49451;52.390;13.028;2023-05-29T20:50:55;15.92;51.00
63325;SHT31;49451;52.390;13.028;2023-05-29T20:53:21;15.71;51.44
63325;SHT31;49451;52.390;13.028;2023-05-29T20:55:47;15.62;51.38
63325;SHT31;49451;52.390;13.028;2023-05-29T20:58:13;15.63;52.38
